Time;durP1;ratioP1;P1;durP2;ratioP2;P2;SDS_P1;SDS_P2;PMS_P1;PMS_P2;Temp;Humidity;BMP_temperature;BMP_pressure;BME280_temperature;BME280_humidity;BME280_pressure;Samples;Min_cycle;Max_cycle;Signal;HPM_P1;HPM_P2
2023/03/02 00:01:31;;;;;;;3.55;3.25;;;22.10;35.60;;;;;;5053136;28;20045;-60
2023/03/02 00:04:00;;;;;;;6.00;3.88;;;22.10;35.60;;;;;;5053496;28;20076;-60
2023/03/02 00:06:30;;;;;;;4.03;3.08;;;22.10;35.50;;;;;;5053715;28;20485;-59
2023/03/02 00:08:59;;;;;;;3.88;3.28;;;22.10;35.50;;;;;;5054149;28;20049;-60
2023/03/02 00:11:31;;;;;;;4.18;3.55;;;22.10;35.50;;;;;;5053109;28;20051;-59
2023/03/02 00:13:58;;;;;;;4.72;3.65;;;22.10;35.50;;;;;;5052147;28;20076;-60
2023/03/02 00:16:25;;;;;;;4.60;3.80;;;22.10;35.40;;;;;;5054315;28;20076;-59
2023/03/02 00:18:52;;;;;;;5.13;3.97;;;22.10;35.40;;;;;;5054270;28;20080;-59
2023/03/02 00:21:19;;;;;;;3.58;3.22;;;22.10;35.40;;;;;;5053723;28;20045;-59
2023/03/02 00:23:47;;;;;;;3.50;3.00;;;22.10;35.40;;;;;;5053118;28;20509;-59
2023/03/02 00:26:14;;;;;;;3.35;3.05;;;22.10;36.00;;;;;;5054015;28;20131;-59
2023/03/02 00:28:41;;;;;;;4.22;3.50;;;22.10;36.00;;;;;;5053105;28;20059;-59
2023/03/02 00:31:08;;;;;;;4.32;3.85;;;22.10;35.30;;;;;;5053605;28;20068;-60
2023/03/02 00:33:35;;;;;;;4.13;3.20;;;22.10;35.30;;;;;;5053993;28;20466;-59
2023/03/02 00:36:03;;;;;;;3.75;3.08;;;22.10;35.30;;;;;;5053393;28;20136;-60
2023/03/02 00:38:30;;;;;;;3.80;3.28;;;22.10;35.30;;;;;;5053786;28;20432;-59
2023/03/02 00:40:58;;;;;;;3.60;3.30;;;22.10;35.40;;;;;;5052897;28;20508;-60
2023/03/02 00:43:26;;;;;;;3.97;2.90;;;22.10;35.40;;;;;;5052882;28;20048;-60
2023/03/02 00:45:54;;;;;;;3.65;2.85;;;22.10;35.40;;;;;;5052609;28;20060;-59
2023/03/02 00:48:21;;;;;;;3.25;2.95;;;22.10;35.40;;;;;;5052775;28;20128;-60
2023/03/02 00:50:49;;;;;;;3.60;3.00;;;22.10;35.40;;;;;;5052754;28;20404;-59
2023/03/02 00:53:16;;;;;;;4.13;3.20;;;22.10;35.40;;;;;;5051332;28;20128;-60
2023/03/02 00:55:53;;;;;;;3.85;3.30;;;22.00;35.30;;;;;;5051027;28;20049;-59
2023/03/02 00:58:20;;;;;;;3.22;2.95;;;22.10;35.40;;;;;;5052047;28;20136;-60
2023/03/02 01:00:48;;;;;;;4.22;3.20;;;22.00;35.40;;;;;;5052636;28;20128;-59
2023/03/02 01:03:15;;;;;;;2.45;2.25;;;22.00;35.40;;;;;;5052502;28;20497;-59
2023/03/02 01:05:42;;;;;;;3.58;3.05;;;22.00;35.40;;;;;;5052948;28;20057;-59
2023/03/02 01:08:10;;;;;;;3.70;3.13;;;22.00;35.40;;;;;;5052915;28;20102;-60
2023/03/02 01:10:37;;;;;;;3.67;3.38;;;22.00;35.40;;;;;;5053071;28;20127;-59
2023/03/02 01:13:05;;;;;;;3.80;3.40;;;22.00;35.40;;;;;;5052173;28;20053;-59
2023/03/02 01:15:32;;;;;;;4.97;3.90;;;22.00;35.40;;;;;;5052346;28;20053;-59
2023/03/02 01:18:00;;;;;;;3.60;3.10;;;22.00;35.40;;;;;;5053405;28;20404;-59
2023/03/02 01:20:27;;;;;;;3.03;2.72;;;22.00;35.40;;;;;;5052335;28;20103;-59
2023/03/02 01:22:54;;;;;;;3.83;2.95;;;22.00;35.40;;;;;;5052492;28;20051;-59
2023/03/02 01:25:22;;;;;;;3.88;3.45;;;22.00;35.40;;;;;;5051651;28;20137;-60
2023/03/02 01:27:49;;;;;;;4.07;2.83;;;22.00;35.40;;;;;;5051971;28;20045;-59
2023/03/02 01:30:16;;;;;;;3.63;3.20;;;22.00;35.40;;;;;;5051703;28;20084;-59
2023/03/02 01:32:44;;;;;;;4.68;3.30;;;22.00;35.40;;;;;;5052486;28;20091;-59
2023/03/02 01:35:12;;;;;;;4.50;3.25;;;22.00;35.40;;;;;;5051495;28;20080;-60
2023/03/02 01:37:39;;;;;;;2.83;2.63;;;22.00;35.40;;;;;;5053186;28;20128;-59
2023/03/02 01:40:07;;;;;;;3.70;2.97;;;22.00;35.40;;;;;;5051506;28;20049;-60
2023/03/02 01:42:44;;;;;;;3.45;2.95;;;22.00;35.40;;;;;;5055722;28;20128;-59
2023/03/02 01:45:46;;;;;;;3.00;2.45;;;22.00;35.40;;;;;;5056374;28;20051;-61
2023/03/02 01:48:16;;;;;;;3.67;2.88;;;22.00;35.40;;;;;;5055734;28;20132;-60
2023/03/02 01:50:44;;;;;;;3.97;3.25;;;22.00;35.40;;;;;;5055211;28;20057;-59
2023/03/02 01:53:13;;;;;;;3.20;2.85;;;22.00;35.40;;;;;;5056145;28;20527;-59
2023/03/02 01:55:43;;;;;;;3.80;3.17;;;22.00;35.40;;;;;;5054095;28;20053;-59
2023/03/02 01:58:12;;;;;;;3.70;3.20;;;21.90;35.30;;;;;;5055992;28;20047;-59
2023/03/02 02:00:40;;;;;;;3.00;2.70;;;21.90;35.30;;;;;;5055522;28;20052;-59
2023/03/02 02:03:19;;;;;;;2.58;2.30;;;21.90;35.30;;;;;;5055616;28;20048;-59
2023/03/02 02:06:20;;;;;;;2.95;2.58;;;22.00;35.40;;;;;;5056516;28;20049;-59
2023/03/02 02:08:47;;;;;;;;;;;21.90;35.30;;;;;;5055541;28;20088;-59
2023/03/02 02:11:15;;;;;;;3.22;2.90;;;21.90;35.30;;;;;;5055204;28;19920;-61
2023/03/02 02:13:43;;;;;;;4.20;2.90;;;21.90;35.30;;;;;;5056111;28;20463;-59
2023/03/02 02:16:10;;;;;;;2.90;2.67;;;21.90;35.30;;;;;;5055740;28;20094;-59
2023/03/02 02:18:39;;;;;;;3.67;2.63;;;21.90;35.30;;;;;;5054967;28;20053;-59
2023/03/02 02:21:07;;;;;;;3.55;2.75;;;21.90;35.30;;;;;;5055089;28;20045;-59
2023/03/02 02:23:53;;;;;;;2.67;2.35;;;21.90;35.20;;;;;;5054798;28;20229;-59
2023/03/02 02:26:30;;;;;;;3.22;2.60;;;21.90;35.20;;;;;;5055689;28;20487;-59
2023/03/02 02:29:06;;;;;;;3.40;2.47;;;21.90;35.20;;;;;;5056450;28;20049;-59
2023/03/02 02:31:50;;;;;;;4.05;2.72;;;21.90;35.20;;;;;;5056035;28;20103;-59
2023/03/02 02:34:24;;;;;;;3.22;2.65;;;21.90;35.20;;;;;;5055663;28;20041;-59
2023/03/02 02:36:56;;;;;;;3.15;2.40;;;21.90;35.10;;;;;;5055533;28;20060;-59
2023/03/02 02:39:28;;;;;;;2.40;2.20;;;21.90;35.10;;;;;;5054877;28;20065;-59
2023/03/02 02:41:59;;;;;;;5.25;2.80;;;21.90;35.10;;;;;;5054964;28;20127;-59
2023/03/02 02:44:26;;;;;;;2.75;2.55;;;21.90;35.10;;;;;;5055217;28;20132;-59
2023/03/02 02:46:54;;;;;;;3.20;2.80;;;21.90;35.10;;;;;;5055094;28;20500;-59
2023/03/02 02:49:35;;;;;;;2.92;2.30;;;21.90;35.70;;;;;;5054867;28;20051;-59
2023/03/02 02:52:04;;;;;;;2.65;2.42;;;21.90;35.10;;;;;;5055067;28;20081;-59
2023/03/02 02:54:33;;;;;;;2.95;2.65;;;21.90;35.20;;;;;;5054582;28;20084;-59
2023/03/02 02:57:02;;;;;;;3.30;2.30;;;21.90;35.20;;;;;;5054875;28;20120;-60
2023/03/02 02:59:38;;;;;;;2.70;2.45;;;21.90;35.20;;;;;;5054010;28;20053;-60
2023/03/02 03:02:24;;;;;;;3.22;2.50;;;21.90;35.20;;;;;;5053188;28;20045;-59
2023/03/02 03:04:58;;;;;;;2.60;2.40;;;21.90;35.20;;;;;;5054878;28;20048;-59
2023/03/02 03:07:25;;;;;;;4.18;2.47;;;21.90;35.20;;;;;;5054979;28;20533;-59
2023/03/02 03:10:03;;;;;;;2.53;2.15;;;21.90;35.20;;;;;;5055409;28;20053;-59
2023/03/02 03:12:32;;;;;;;2.80;2.40;;;21.90;35.20;;;;;;5054849;28;20048;-59
2023/03/02 03:15:01;;;;;;;3.03;2.63;;;21.90;35.20;;;;;;5053689;28;20045;-59
2023/03/02 03:17:29;;;;;;;3.42;2.75;;;21.90;35.20;;;;;;5054496;28;20049;-60
2023/03/02 03:20:04;;;;;;;2.33;2.10;;;21.90;35.20;;;;;;5054203;28;20487;-59
2023/03/02 03:22:37;;;;;;;2.53;2.33;;;21.80;35.10;;;;;;5053989;28;20041;-60
2023/03/02 03:25:05;;;;;;;3.28;2.63;;;21.80;35.10;;;;;;5053498;28;20497;-59
2023/03/02 03:27:32;;;;;;;3.10;2.60;;;21.80;35.10;;;;;;5054591;28;20128;-60
2023/03/02 03:30:00;;;;;;;3.00;2.70;;;21.90;35.20;;;;;;5053829;28;20076;-60
2023/03/02 03:32:28;;;;;;;2.50;2.30;;;21.80;35.10;;;;;;5053576;28;20110;-61
2023/03/02 03:34:55;;;;;;;3.13;2.30;;;21.80;35.60;;;;;;5054054;28;20049;-59
2023/03/02 03:37:23;;;;;;;3.38;2.65;;;21.80;35.10;;;;;;5054095;28;20045;-59
2023/03/02 03:39:50;;;;;;;2.45;2.25;;;21.80;35.10;;;;;;5053075;28;20137;-60
2023/03/02 03:42:17;;;;;;;2.47;2.20;;;21.80;35.00;;;;;;5054739;28;20045;-59
2023/03/02 03:44:45;;;;;;;3.08;2.35;;;21.80;35.10;;;;;;5054372;28;20056;-59
2023/03/02 03:47:12;;;;;;;2.38;2.00;;;21.80;35.00;;;;;;5052642;28;20049;-59
2023/03/02 03:49:39;;;;;;;2.90;2.20;;;21.80;35.10;;;;;;5054483;28;20465;-59
2023/03/02 03:52:06;;;;;;;2.70;2.33;;;21.80;35.00;;;;;;5052997;28;20053;-59
2023/03/02 03:54:33;;;;;;;3.10;2.55;;;21.80;35.10;;;;;;5053927;28;20548;-60
2023/03/02 03:57:01;;;;;;;3.22;2.47;;;21.80;35.10;;;;;;5053395;28;20484;-59
2023/03/02 03:59:28;;;;;;;2.17;2.03;;;21.80;35.10;;;;;;5052540;28;20413;-59
2023/03/02 04:01:58;;;;;;;2.50;2.30;;;21.80;35.10;;;;;;5052320;28;20135;-59
2023/03/02 04:04:29;;;;;;;2.15;1.88;;;21.80;35.10;;;;;;5052482;28;20511;-59
2023/03/02 04:06:56;;;;;;;1.70;1.60;;;21.80;35.00;;;;;;5053403;28;20103;-60
2023/03/02 04:09:24;;;;;;;2.20;2.00;;;21.80;35.00;;;;;;5054472;28;20055;-60
2023/03/02 04:11:53;;;;;;;2.45;2.15;;;21.80;35.00;;;;;;5053156;28;20107;-59
2023/03/02 04:14:22;;;;;;;2.30;2.10;;;21.80;35.10;;;;;;5052729;28;20070;-60
2023/03/02 04:16:50;;;;;;;2.00;1.90;;;21.80;35.00;;;;;;5053363;28;20066;-59
2023/03/02 04:19:17;;;;;;;2.42;2.22;;;21.80;35.00;;;;;;5053647;28;20132;-59
2023/03/02 04:21:47;;;;;;;2.85;2.22;;;21.80;35.00;;;;;;5053393;28;20079;-60
2023/03/02 04:24:16;;;;;;;2.28;2.10;;;21.80;35.00;;;;;;5053257;28;20045;-60
2023/03/02 04:26:44;;;;;;;2.40;2.20;;;21.80;35.00;;;;;;5052202;28;20055;-60
2023/03/02 04:29:12;;;;;;;2.40;2.20;;;21.80;34.90;;;;;;5052252;28;20477;-59
2023/03/02 04:31:40;;;;;;;2.00;1.88;;;21.80;34.90;;;;;;5052635;28;20049;-60
2023/03/02 04:34:08;;;;;;;2.50;2.05;;;21.80;34.90;;;;;;5053244;28;20140;-59
2023/03/02 04:36:37;;;;;;;2.13;2.03;;;21.80;34.90;;;;;;5053389;28;20131;-59
2023/03/02 04:39:05;;;;;;;2.15;2.03;;;21.80;34.90;;;;;;5052074;28;20122;-59
2023/03/02 04:41:33;;;;;;;2.83;2.10;;;21.80;34.80;;;;;;5066508;28;20139;-59
2023/03/02 04:44:00;;;;;;;2.25;2.08;;;21.80;34.80;;;;;;5050755;28;20047;-59
2023/03/02 04:46:27;;;;;;;1.90;1.80;;;21.80;34.80;;;;;;5052515;28;20381;-59
2023/03/02 04:48:55;;;;;;;2.83;2.25;;;21.80;34.80;;;;;;5052998;28;20056;-59
2023/03/02 04:51:26;;;;;;;3.60;2.55;;;21.80;34.90;;;;;;5051749;28;20103;-59
2023/03/02 04:53:57;;;;;;;2.08;1.90;;;21.80;34.80;;;;;;5051592;28;20560;-59
2023/03/02 04:56:24;;;;;;;2.40;2.10;;;21.80;34.90;;;;;;5051796;28;20128;-59
2023/03/02 04:58:52;;;;;;;2.42;2.22;;;21.80;34.80;;;;;;5052700;28;20123;-60
2023/03/02 05:01:19;;;;;;;2.17;2.00;;;21.80;34.80;;;;;;5053026;28;20463;-59
2023/03/02 05:03:47;;;;;;;2.22;1.88;;;21.70;34.80;;;;;;5052468;28;20047;-59
2023/03/02 05:06:15;;;;;;;1.92;1.77;;;21.80;34.90;;;;;;5051945;28;20136;-59
2023/03/02 05:08:43;;;;;;;2.22;2.03;;;21.80;34.90;;;;;;5052888;28;20045;-59
2023/03/02 05:11:21;;;;;;;2.30;2.10;;;21.80;34.80;;;;;;5051989;28;20560;-59
2023/03/02 05:13:53;;;;;;;2.20;2.00;;;21.80;34.80;;;;;;5052183;28;20461;-59
2023/03/02 05:16:22;;;;;;;2.65;2.25;;;21.70;34.80;;;;;;5049653;28;20051;-59
2023/03/02 05:18:49;;;;;;;2.78;2.05;;;21.70;34.80;;;;;;5051984;28;20577;-60
2023/03/02 05:21:17;;;;;;;3.40;2.72;;;21.70;34.80;;;;;;5051338;28;20044;-59
2023/03/02 05:23:45;;;;;;;2.40;2.13;;;21.70;34.80;;;;;;5049957;28;20135;-59
2023/03/02 05:26:14;;;;;;;2.80;2.30;;;21.70;34.80;;;;;;5051504;28;20155;-60
2023/03/02 05:28:41;;;;;;;2.08;1.88;;;21.70;34.70;;;;;;5048930;28;20076;-59
2023/03/02 05:31:28;;;;;;;2.08;1.90;;;21.70;34.70;;;;;;5050999;28;20049;-59
2023/03/02 05:33:55;;;;;;;1.83;1.73;;;21.70;34.70;;;;;;5050620;28;20049;-60
2023/03/02 05:36:22;;;;;;;2.83;2.55;;;21.70;34.70;;;;;;5051936;28;20076;-59
2023/03/02 05:38:50;;;;;;;3.53;2.47;;;21.70;34.60;;;;;;5050497;28;20096;-59
2023/03/02 05:41:17;;;;;;;3.80;3.22;;;21.70;34.20;;;;;;5050557;28;20041;-59
2023/03/02 05:43:44;;;;;;;3.50;3.08;;;21.70;34.10;;;;;;5051313;28;20053;-59
2023/03/02 05:46:11;;;;;;;6.30;2.92;;;21.70;34.00;;;;;;5051544;28;20135;-59
2023/03/02 05:48:40;;;;;;;3.33;2.97;;;21.70;33.90;;;;;;5051694;28;20397;-59
2023/03/02 05:51:07;;;;;;;3.80;2.70;;;21.60;33.90;;;;;;5051022;28;20052;-59
2023/03/02 05:53:34;;;;;;;3.20;2.83;;;21.60;33.90;;;;;;5051237;28;20051;-59
2023/03/02 05:56:02;;;;;;;3.47;2.60;;;21.60;34.00;;;;;;5050749;28;20052;-59
2023/03/02 05:58:29;;;;;;;2.95;2.65;;;21.60;34.00;;;;;;5050720;28;20044;-59
2023/03/02 06:00:56;;;;;;;2.92;2.50;;;21.60;34.10;;;;;;5050580;28;20149;-59
2023/03/02 06:03:23;;;;;;;3.50;2.92;;;21.60;34.00;;;;;;5052007;28;20071;-59
2023/03/02 06:05:51;;;;;;;3.33;3.03;;;21.60;33.90;;;;;;5050704;28;20088;-59
2023/03/02 06:08:20;;;;;;;3.65;3.03;;;21.60;33.70;;;;;;5050793;28;20060;-59
2023/03/02 06:10:49;;;;;;;5.00;3.63;;;21.70;33.70;;;;;;5045877;28;20145;-59
2023/03/02 06:13:16;;;;;;;3.53;3.22;;;21.70;33.70;;;;;;5046619;28;20052;-59
2023/03/02 06:15:44;;;;;;;4.88;3.50;;;21.70;33.60;;;;;;5051230;28;20059;-58
2023/03/02 06:18:11;;;;;;;4.30;3.70;;;21.70;33.70;;;;;;5049054;28;20040;-58
2023/03/02 06:20:39;;;;;;;4.05;3.65;;;21.80;33.70;;;;;;5044879;28;20056;-59
2023/03/02 06:23:06;;;;;;;4.38;3.90;;;21.80;33.70;;;;;;5040396;28;20045;-59
2023/03/02 06:25:35;;;;;;;4.70;4.00;;;21.90;33.70;;;;;;5037891;28;20106;-59
2023/03/02 06:28:03;;;;;;;4.35;3.92;;;21.90;33.60;;;;;;5045920;28;20140;-59
2023/03/02 06:30:31;;;;;;;6.03;4.28;;;21.90;33.50;;;;;;5049173;28;20045;-60
2023/03/02 06:32:58;;;;;;;5.95;4.13;;;22.00;33.50;;;;;;5048590;28;20055;-60
2023/03/02 06:35:26;;;;;;;5.75;4.43;;;22.00;33.40;;;;;;5044665;28;20092;-58
2023/03/02 06:37:53;;;;;;;6.85;5.22;;;22.10;33.40;;;;;;5041089;28;20127;-59
2023/03/02 06:40:20;;;;;;;7.68;4.95;;;22.10;33.30;;;;;;5041348;28;20189;-59
2023/03/02 06:42:48;;;;;;;5.68;4.47;;;22.10;33.30;;;;;;5048638;28;20534;-58
2023/03/02 06:45:16;;;;;;;8.45;4.53;;;22.20;33.20;;;;;;5046345;28;20075;-56
2023/03/02 06:47:43;;;;;;;6.68;5.03;;;22.30;33.10;;;;;;5042307;28;20041;-61
2023/03/02 06:50:10;;;;;;;10.05;5.78;;;22.30;33.00;;;;;;5042645;28;20053;-59
2023/03/02 06:52:37;;;;;;;8.05;4.80;;;22.30;33.00;;;;;;5039761;28;20055;-59
2023/03/02 06:55:06;;;;;;;7.25;5.28;;;22.40;33.20;;;;;;5040350;28;20064;-60
2023/03/02 06:57:33;;;;;;;6.65;5.50;;;22.40;33.60;;;;;;5042139;28;20088;-59
2023/03/02 07:00:08;;;;;;;6.00;4.90;;;22.40;33.80;;;;;;5039064;28;20141;-59
2023/03/02 07:02:36;;;;;;;5.80;4.88;;;22.40;34.00;;;;;;5039177;28;20053;-61
2023/03/02 07:05:04;;;;;;;8.52;5.63;;;22.50;34.10;;;;;;5042993;28;20057;-59
2023/03/02 07:07:32;;;;;;;6.97;5.15;;;22.50;34.10;;;;;;5037756;28;20049;-59
2023/03/02 07:09:59;;;;;;;5.70;4.82;;;22.60;34.00;;;;;;5044344;28;20073;-60
2023/03/02 07:12:26;;;;;;;8.02;5.65;;;22.60;34.10;;;;;;5044590;28;20040;-59
2023/03/02 07:14:53;;;;;;;10.68;6.00;;;22.70;34.20;;;;;;5041034;28;20282;-60
2023/03/02 07:17:21;;;;;;;13.23;7.03;;;22.70;34.20;;;;;;5035514;28;20052;-61
2023/03/02 07:19:49;;;;;;;9.25;6.97;;;22.80;34.20;;;;;;5039895;28;20076;-60
2023/03/02 07:22:16;;;;;;;9.25;6.80;;;22.80;34.20;;;;;;5045125;28;20136;-60
2023/03/02 07:24:43;;;;;;;8.23;6.43;;;22.80;34.20;;;;;;5039834;28;20041;-59
2023/03/02 07:27:11;;;;;;;15.77;6.63;;;22.90;34.20;;;;;;5044020;28;20492;-58
2023/03/02 07:29:39;;;;;;;8.07;5.70;;;22.90;34.10;;;;;;5043400;28;20052;-59
2023/03/02 07:32:06;;;;;;;9.38;6.40;;;22.90;33.90;;;;;;5044843;28;20045;-60
2023/03/02 07:34:35;;;;;;;8.55;6.22;;;23.00;34.20;;;;;;5043615;28;20374;-59
2023/03/02 07:37:02;;;;;;;11.52;6.75;;;23.00;34.20;;;;;;5048672;28;20048;-60
2023/03/02 07:39:29;;;;;;;10.95;6.80;;;23.00;34.30;;;;;;5045462;28;20084;-59
2023/03/02 07:41:59;;;;;;;10.80;6.55;;;23.00;34.30;;;;;;5047210;28;20132;-59
2023/03/02 07:44:26;;;;;;;9.60;6.22;;;23.00;34.30;;;;;;5044726;28;20490;-60
2023/03/02 07:46:54;;;;;;;9.55;6.75;;;23.10;34.40;;;;;;5043376;28;20077;-60
2023/03/02 07:49:21;;;;;;;11.18;8.57;;;23.10;34.40;;;;;;5045275;28;20132;-58
2023/03/02 07:51:48;;;;;;;12.05;7.53;;;23.20;34.40;;;;;;5046116;28;20168;-59
2023/03/02 07:54:15;;;;;;;15.43;7.95;;;23.20;34.40;;;;;;5036846;28;20558;-57
2023/03/02 07:56:43;;;;;;;16.15;7.88;;;23.20;34.40;;;;;;5042567;28;20049;-56
2023/03/02 07:59:11;;;;;;;14.50;8.18;;;23.30;34.40;;;;;;5044546;28;20118;-61
2023/03/02 08:01:39;;;;;;;12.93;7.70;;;23.30;34.30;;;;;;5046437;28;20046;-60
2023/03/02 08:04:06;;;;;;;12.45;8.50;;;23.30;34.30;;;;;;5043527;28;20048;-60
2023/03/02 08:06:34;;;;;;;13.52;8.63;;;23.40;34.20;;;;;;5040958;28;20045;-59
2023/03/02 08:09:03;;;;;;;14.77;8.73;;;23.40;34.20;;;;;;5040763;28;20041;-59
2023/03/02 08:11:30;;;;;;;15.23;8.50;;;23.50;34.30;;;;;;5041777;28;20056;-58
2023/03/02 08:14:02;;;;;;;16.30;9.20;;;23.50;34.20;;;;;;5042072;28;20052;-58
2023/03/02 08:16:29;;;;;;;14.95;8.45;;;23.50;34.00;;;;;;5045445;28;20048;-59
2023/03/02 08:18:57;;;;;;;16.10;9.35;;;23.60;34.00;;;;;;5043112;28;20053;-59
2023/03/02 08:21:27;;;;;;;19.45;9.95;;;23.60;33.90;;;;;;5039806;28;20041;-56
2023/03/02 08:23:54;;;;;;;17.85;8.38;;;23.60;33.80;;;;;;5041435;28;20118;-58
2023/03/02 08:26:21;;;;;;;18.08;9.18;;;23.70;33.90;;;;;;5037566;28;20056;-59
2023/03/02 08:28:49;;;;;;;17.63;9.90;;;23.70;33.90;;;;;;5043271;28;20849;-54
2023/03/02 08:31:16;;;;;;;17.95;10.18;;;23.70;34.00;;;;;;5042862;28;20102;-60
2023/03/02 08:33:44;;;;;;;20.23;10.48;;;23.80;34.10;;;;;;5039837;28;20127;-55
2023/03/02 08:36:15;;;;;;;17.17;10.20;;;23.80;34.20;;;;;;5040929;28;20098;-56
2023/03/02 08:38:43;;;;;;;20.10;10.98;;;23.90;34.30;;;;;;5043589;28;20300;-58
2023/03/02 08:41:14;;;;;;;18.98;11.27;;;23.90;34.20;;;;;;5038932;28;20072;-59
2023/03/02 08:43:42;;;;;;;19.88;11.40;;;23.90;34.00;;;;;;5041782;28;20053;-59
2023/03/02 08:46:11;;;;;;;21.02;11.93;;;23.90;33.80;;;;;;5038882;28;20059;-60
2023/03/02 08:48:38;;;;;;;18.70;11.50;;;24.00;33.70;;;;;;5037677;28;20045;-59
2023/03/02 08:51:12;;;;;;;19.02;11.45;;;24.00;33.60;;;;;;5039876;28;20080;-60
2023/03/02 08:53:42;;;;;;;20.55;10.80;;;24.00;33.50;;;;;;5044431;28;20057;-58
2023/03/02 08:56:29;;;;;;;19.55;11.52;;;24.10;33.60;;;;;;5043895;28;20076;-60
2023/03/02 08:59:02;;;;;;;18.55;10.90;;;24.10;33.50;;;;;;5046142;28;20084;-59
2023/03/02 09:01:32;;;;;;;18.65;10.82;;;24.10;33.40;;;;;;5044483;28;20056;-60
2023/03/02 09:04:01;;;;;;;17.80;10.32;;;24.10;33.30;;;;;;5030473;28;20148;-61
2023/03/02 09:06:29;;;;;;;15.00;9.30;;;24.10;33.30;;;;;;5050628;28;20089;-61
2023/03/02 09:08:57;;;;;;;15.80;9.82;;;24.10;33.20;;;;;;5043129;28;20053;-58
2023/03/02 09:11:25;;;;;;;20.05;10.10;;;24.10;33.10;;;;;;5040899;28;20127;-58
2023/03/02 09:13:53;;;;;;;15.35;9.05;;;24.10;33.10;;;;;;5038611;28;20129;-59
2023/03/02 09:16:22;;;;;;;16.88;9.40;;;24.20;33.00;;;;;;5045759;28;20136;-58
2023/03/02 09:18:50;;;;;;;17.33;9.80;;;24.10;33.00;;;;;;5042116;28;20155;-56
2023/03/02 09:21:17;;;;;;;15.27;8.82;;;24.10;33.00;;;;;;5042401;28;20045;-56
2023/03/02 09:23:45;;;;;;;16.45;9.57;;;24.20;33.40;;;;;;5042381;28;20055;-58
2023/03/02 09:26:12;;;;;;;16.98;9.63;;;24.20;32.80;;;;;;5046580;28;20532;-59
2023/03/02 09:28:39;;;;;;;18.77;9.82;;;24.30;32.90;;;;;;5048149;28;20132;-58
2023/03/02 09:31:07;;;;;;;17.75;9.82;;;24.20;32.90;;;;;;5043071;28;20057;-58
2023/03/02 09:33:35;;;;;;;11.52;8.23;;;24.20;32.80;;;;;;5044565;28;20076;-59
2023/03/02 09:36:08;;;;;;;12.48;7.97;;;24.30;32.90;;;;;;5043099;28;20069;-58
2023/03/02 09:38:35;;;;;;;13.70;8.77;;;24.30;32.80;;;;;;5040666;28;20057;-58
2023/03/02 09:41:42;;;;;;;13.95;8.35;;;24.30;32.80;;;;;;5046039;28;20141;-59
2023/03/02 09:44:49;;;;;;;17.48;9.55;;;24.30;32.80;;;;;;5038633;28;20136;-57
2023/03/02 09:47:42;;;;;;;14.80;8.15;;;24.30;32.60;;;;;;5041722;28;20049;-57
2023/03/02 09:50:33;;;;;;;13.90;8.75;;;24.30;32.70;;;;;;5043587;28;20045;-59
2023/03/02 09:53:29;;;;;;;10.10;7.72;;;24.30;32.60;;;;;;5039742;28;20041;-59
2023/03/02 09:55:59;;;;;;;12.32;7.55;;;24.30;32.60;;;;;;5041617;28;20055;-58
2023/03/02 09:58:38;;;;;;;11.43;7.57;;;24.30;32.60;;;;;;5043532;28;20061;-59
2023/03/02 10:01:15;;;;;;;14.27;8.75;;;24.30;32.60;;;;;;5039713;28;20464;-59
2023/03/02 10:04:07;;;;;;;14.77;7.45;;;24.40;32.70;;;;;;5048579;28;20053;-58
2023/03/02 10:06:34;;;;;;;18.58;8.48;;;24.30;32.50;;;;;;5049010;28;20080;-58
2023/03/02 10:09:02;;;;;;;10.95;7.05;;;24.30;32.60;;;;;;5044017;28;20073;-55
2023/03/02 10:11:53;;;;;;;14.50;7.68;;;24.40;32.60;;;;;;5046589;28;20052;-58
2023/03/02 10:14:29;;;;;;;13.55;7.38;;;24.40;32.60;;;;;;5046133;28;20103;-59
2023/03/02 10:17:29;;;;;;;12.05;7.63;;;24.40;32.60;;;;;;5041620;28;20045;-56
2023/03/02 10:20:04;;;;;;;11.63;6.88;;;24.40;32.60;;;;;;5043570;28;20044;-56
2023/03/02 10:22:40;;;;;;;13.45;8.68;;;24.50;32.60;;;;;;5041130;28;20132;-58
2023/03/02 10:25:32;;;;;;;11.73;7.32;;;24.50;32.50;;;;;;5042582;28;20485;-58
2023/03/02 10:28:16;;;;;;;15.30;7.22;;;24.50;32.50;;;;;;5047069;28;20492;-57
2023/03/02 10:30:48;;;;;;;12.18;7.72;;;24.60;32.30;;;;;;5043436;28;20051;-55
2023/03/02 10:33:20;;;;;;;9.50;6.78;;;24.60;32.10;;;;;;5041955;28;20046;-55
2023/03/02 10:35:50;;;;;;;9.38;7.35;;;24.60;31.90;;;;;;5039085;28;20555;-57
2023/03/02 10:38:21;;;;;;;12.23;7.63;;;24.60;31.70;;;;;;5045286;28;22098;-58
2023/03/02 10:40:58;;;;;;;10.95;7.32;;;24.70;31.70;;;;;;5037875;28;20132;-57
2023/03/02 10:43:42;;;;;;;11.20;7.75;;;24.70;31.60;;;;;;5040672;28;20068;-59
2023/03/02 10:46:11;;;;;;;10.80;7.75;;;24.70;31.50;;;;;;5043257;28;21309;-58
2023/03/02 10:49:00;;;;;;;11.57;6.85;;;24.70;31.40;;;;;;5028202;28;20096;-57
2023/03/02 10:51:30;;;;;;;10.48;7.47;;;24.70;31.40;;;;;;5045814;28;20073;-57
2023/03/02 10:54:06;;;;;;;10.45;7.30;;;24.70;31.40;;;;;;5044938;28;20077;-56
2023/03/02 10:56:33;;;;;;;9.75;7.18;;;24.70;31.30;;;;;;5046332;28;20073;-56
2023/03/02 10:59:26;;;;;;;11.10;7.38;;;24.80;31.30;;;;;;5039326;28;20052;-58
2023/03/02 11:02:15;;;;;;;12.75;7.95;;;24.80;31.30;;;;;;5045428;28;20076;-58
2023/03/02 11:04:43;;;;;;;10.60;6.90;;;24.80;31.40;;;;;;5039394;28;21301;-60
2023/03/02 11:07:19;;;;;;;12.60;7.97;;;24.80;31.30;;;;;;5039769;28;20076;-60
2023/03/02 11:10:05;;;;;;;11.10;7.40;;;24.80;31.30;;;;;;5042343;28;20042;-60
2023/03/02 11:12:36;;;;;;;10.68;8.15;;;24.80;31.30;;;;;;5041219;28;20143;-60
2023/03/02 11:15:24;;;;;;;12.45;8.35;;;24.80;31.40;;;;;;5044856;28;20057;-60
2023/03/02 11:18:23;;;;;;;11.60;7.70;;;24.90;31.40;;;;;;5045984;28;20132;-54
2023/03/02 11:21:00;;;;;;;11.77;7.95;;;24.90;31.40;;;;;;5040723;28;20258;-59
2023/03/02 11:23:54;;;;;;;12.10;8.15;;;24.90;31.40;;;;;;5049098;28;20141;-58
2023/03/02 11:26:25;;;;;;;12.20;8.05;;;24.90;31.40;;;;;;5046059;28;20516;-59
2023/03/02 11:29:19;;;;;;;13.40;8.65;;;24.90;31.40;;;;;;5045830;28;20121;-58
2023/03/02 11:31:52;;;;;;;11.65;7.97;;;24.90;31.40;;;;;;5040823;28;20084;-58
2023/03/02 11:34:45;;;;;;;13.15;8.35;;;24.90;31.40;;;;;;5044014;28;20639;-58
2023/03/02 11:37:22;;;;;;;14.15;9.23;;;24.90;31.50;;;;;;5041106;28;20088;-57
2023/03/02 11:40:21;;;;;;;14.88;8.70;;;24.90;31.50;;;;;;5044573;28;20041;-59
2023/03/02 11:42:50;;;;;;;14.10;9.13;;;24.90;31.40;;;;;;5044256;28;20048;-59
2023/03/02 11:45:26;;;;;;;15.30;9.80;;;24.90;31.40;;;;;;5043025;28;20060;-59
2023/03/02 11:48:11;;;;;;;16.55;9.35;;;24.90;31.50;;;;;;5039587;28;20041;-60
2023/03/02 11:50:59;;;;;;;14.60;9.38;;;24.90;31.50;;;;;;5037602;28;20928;-59
2023/03/02 11:53:38;;;;;;;13.43;9.30;;;24.90;31.50;;;;;;5040709;28;20073;-59
2023/03/02 11:56:06;;;;;;;13.65;9.15;;;24.90;31.60;;;;;;5045069;28;20148;-58
2023/03/02 11:58:33;;;;;;;12.10;8.63;;;24.90;31.70;;;;;;5046723;28;20041;-58
2023/03/02 12:01:02;;;;;;;12.95;9.05;;;24.90;31.70;;;;;;5043082;28;20068;-58
2023/03/02 12:03:39;;;;;;;13.90;8.80;;;24.90;31.70;;;;;;5041122;28;20048;-58
2023/03/02 12:06:33;;;;;;;18.33;10.02;;;24.90;31.80;;;;;;5043585;28;20041;-59
2023/03/02 12:09:29;;;;;;;13.80;8.52;;;24.80;31.80;;;;;;5042843;28;20049;-56
2023/03/02 12:12:19;;;;;;;12.40;8.75;;;24.80;31.80;;;;;;5041564;28;20103;-54
2023/03/02 12:14:46;;;;;;;17.57;10.17;;;24.80;31.80;;;;;;5040104;28;20445;-55
2023/03/02 12:17:31;;;;;;;14.73;9.32;;;24.80;31.80;;;;;;5045659;28;20091;-58
2023/03/02 12:20:25;;;;;;;18.60;9.73;;;24.80;31.80;;;;;;5044583;28;20127;-58
2023/03/02 12:22:53;;;;;;;15.40;9.73;;;24.80;31.80;;;;;;5047659;28;20049;-58
2023/03/02 12:25:35;;;;;;;16.05;10.10;;;24.80;31.80;;;;;;5044734;28;20566;-57
2023/03/02 12:28:02;;;;;;;16.60;10.00;;;24.80;31.80;;;;;;5046907;28;20123;-58
2023/03/02 12:30:31;;;;;;;15.25;10.15;;;24.70;31.80;;;;;;5045256;28;20120;-58
2023/03/02 12:33:20;;;;;;;24.77;11.18;;;24.70;31.80;;;;;;5043201;28;20068;-58
2023/03/02 12:35:49;;;;;;;14.93;10.38;;;24.70;31.80;;;;;;5038279;28;20041;-58
2023/03/02 12:38:32;;;;;;;15.95;10.05;;;24.70;31.80;;;;;;5040036;28;20040;-57
2023/03/02 12:41:40;;;;;;;15.57;10.07;;;24.70;31.80;;;;;;5043232;28;20056;-57
2023/03/02 12:44:33;;;;;;;18.65;11.13;;;24.70;31.70;;;;;;5043749;28;20037;-58
2023/03/02 12:47:01;;;;;;;17.10;10.77;;;24.70;31.70;;;;;;5044651;28;20132;-58
2023/03/02 12:49:52;;;;;;;17.98;11.20;;;24.60;31.60;;;;;;5034871;28;20060;-56
2023/03/02 12:52:29;;;;;;;17.63;11.55;;;24.60;31.50;;;;;;5043740;28;20053;-57
2023/03/02 12:55:18;;;;;;;19.98;10.82;;;24.60;31.50;;;;;;5045358;28;20440;-58
2023/03/02 12:57:51;;;;;;;19.92;10.80;;;24.60;32.10;;;;;;5039307;28;20144;-58
2023/03/02 13:00:26;;;;;;;14.68;9.52;;;24.60;31.50;;;;;;5045270;28;20041;-58
2023/03/02 13:02:55;;;;;;;15.75;10.18;;;24.60;31.60;;;;;;5044464;28;20141;-59
2023/03/02 13:05:29;;;;;;;15.88;9.95;;;24.60;31.60;;;;;;5041879;28;20045;-57
2023/03/02 13:08:07;;;;;;;19.95;10.13;;;24.60;31.60;;;;;;4998270;28;20122;-58